sensor_id;sensor_type;location;lat;lon;timestamp;pressure;altitude;pressure_sealevel;temperature;humidity
69214;BME280;56325;47.030;18.518;2023-03-25T00:00:05;99639.41;;;14.18;71.34
69214;BME280;56325;47.030;18.518;2023-03-25T00:02:46;99646.69;;;14.10;71.77
69214;BME280;56325;47.030;18.518;2023-03-25T00:05:23;99655.25;;;14.12;71.64
69214;BME280;56325;47.030;18.518;2023-03-25T00:07:58;99653.97;;;14.13;71.38
69214;BME280;56325;47.030;18.518;2023-03-25T00:10:33;99642.91;;;14.07;71.49
69214;BME280;56325;47.030;18.518;2023-03-25T00:13:07;99634.13;;;14.09;71.33
69214;BME280;56325;47.030;18.518;2023-03-25T00:15:45;99635.87;;;14.12;71.33
69214;BME280;56325;47.030;18.518;2023-03-25T00:18:20;99629.13;;;14.24;70.93
69214;BME280;56325;47.030;18.518;2023-03-25T00:20:56;99635.16;;;14.17;71.17
69214;BME280;56325;47.030;18.518;2023-03-25T00:23:31;99626.34;;;14.13;71.39
69214;BME280;56325;47.030;18.518;2023-03-25T00:26:06;99627.59;;;14.18;71.05
69214;BME280;56325;47.030;18.518;2023-03-25T00:28:41;99620.84;;;14.30;70.79
69214;BME280;56325;47.030;18.518;2023-03-25T00:31:15;99626.38;;;14.24;71.01
69214;BME280;56325;47.030;18.518;2023-03-25T00:33:50;99624.31;;;14.14;71.50
69214;BME280;56325;47.030;18.518;2023-03-25T00:36:26;99620.59;;;14.28;71.02
69214;BME280;56325;47.030;18.518;2023-03-25T00:39:00;99624.09;;;14.17;71.54
69214;BME280;56325;47.030;18.518;2023-03-25T00:41:36;99609.22;;;14.09;71.99
69214;BME280;56325;47.030;18.518;2023-03-25T00:44:14;99613.75;;;14.12;71.94
69214;BME280;56325;47.030;18.518;2023-03-25T00:46:49;99605.16;;;13.99;72.37
69214;BME280;56325;47.030;18.518;2023-03-25T00:49:23;99610.25;;;14.17;71.70
69214;BME280;56325;47.030;18.518;2023-03-25T00:52:01;99606.44;;;14.03;72.34
69214;BME280;56325;47.030;18.518;2023-03-25T00:54:36;99615.50;;;14.04;72.49
69214;BME280;56325;47.030;18.518;2023-03-25T00:57:11;99616.47;;;13.95;72.80
69214;BME280;56325;47.030;18.518;2023-03-25T00:59:46;99617.00;;;14.05;72.67
69214;BME280;56325;47.030;18.518;2023-03-25T01:02:23;99627.09;;;14.14;72.58
69214;BME280;56325;47.030;18.518;2023-03-25T01:04:57;99621.81;;;14.10;72.73
69214;BME280;56325;47.030;18.518;2023-03-25T01:07:33;99628.78;;;14.00;73.00
69214;BME280;56325;47.030;18.518;2023-03-25T01:10:10;99636.91;;;14.20;72.40
69214;BME280;56325;47.030;18.518;2023-03-25T01:12:44;99641.44;;;14.23;72.12
69214;BME280;56325;47.030;18.518;2023-03-25T01:15:19;99633.66;;;14.22;72.05
69214;BME280;56325;47.030;18.518;2023-03-25T01:17:53;99640.19;;;14.24;71.57
69214;BME280;56325;47.030;18.518;2023-03-25T01:20:29;99639.97;;;14.33;71.06
69214;BME280;56325;47.030;18.518;2023-03-25T01:23:04;99629.91;;;14.30;70.07
69214;BME280;56325;47.030;18.518;2023-03-25T01:25:42;99635.69;;;14.32;70.19
69214;BME280;56325;47.030;18.518;2023-03-25T01:28:17;99641.75;;;14.36;69.94
69214;BME280;56325;47.030;18.518;2023-03-25T01:30:59;99640.53;;;14.43;69.47
69214;BME280;56325;47.030;18.518;2023-03-25T01:33:34;99644.06;;;14.43;69.51
69214;BME280;56325;47.030;18.518;2023-03-25T01:36:10;99640.53;;;14.49;69.40
69214;BME280;56325;47.030;18.518;2023-03-25T01:38:46;99647.59;;;14.50;69.49
69214;BME280;56325;47.030;18.518;2023-03-25T01:41:23;99643.81;;;14.53;69.29
69214;BME280;56325;47.030;18.518;2023-03-25T01:44:06;99642.56;;;14.54;69.11
69214;BME280;56325;47.030;18.518;2023-03-25T01:46:41;99650.59;;;14.52;68.99
69214;BME280;56325;47.030;18.518;2023-03-25T01:49:21;99647.34;;;14.53;68.92
69214;BME280;56325;47.030;18.518;2023-03-25T01:51:59;99646.34;;;14.62;68.68
69214;BME280;56325;47.030;18.518;2023-03-25T01:54:36;99646.59;;;14.64;68.78
69214;BME280;56325;47.030;18.518;2023-03-25T01:57:12;99649.63;;;14.66;68.97
69214;BME280;56325;47.030;18.518;2023-03-25T01:59:51;99660.94;;;14.73;69.12
69214;BME280;56325;47.030;18.518;2023-03-25T02:02:27;99651.88;;;14.56;69.00
69214;BME280;56325;47.030;18.518;2023-03-25T02:05:12;99654.12;;;14.52;69.14
69214;BME280;56325;47.030;18.518;2023-03-25T02:07:49;99653.62;;;14.48;69.34
69214;BME280;56325;47.030;18.518;2023-03-25T02:10:26;99657.34;;;14.39;70.26
69214;BME280;56325;47.030;18.518;2023-03-25T02:13:01;99664.09;;;14.33;70.59
69214;BME280;56325;47.030;18.518;2023-03-25T02:15:49;99673.13;;;14.22;71.35
69214;BME280;56325;47.030;18.518;2023-03-25T02:18:37;99675.53;;;13.98;72.67
69214;BME280;56325;47.030;18.518;2023-03-25T02:21:53;99689.53;;;13.77;73.63
69214;BME280;56325;47.030;18.518;2023-03-25T02:24:59;99691.66;;;13.57;75.29
69214;BME280;56325;47.030;18.518;2023-03-25T02:27:56;99679.28;;;13.47;75.74
69214;BME280;56325;47.030;18.518;2023-03-25T02:30:56;99690.50;;;13.37;75.64
69214;BME280;56325;47.030;18.518;2023-03-25T02:39:56;99682.31;;;13.17;75.68
69214;BME280;56325;47.030;18.518;2023-03-25T02:42:38;99700.81;;;13.11;75.50
69214;BME280;56325;47.030;18.518;2023-03-25T02:45:16;99694.94;;;12.98;76.12
69214;BME280;56325;47.030;18.518;2023-03-25T02:47:57;99695.72;;;13.04;76.36
69214;BME280;56325;47.030;18.518;2023-03-25T02:50:37;99692.19;;;12.98;77.05
69214;BME280;56325;47.030;18.518;2023-03-25T02:53:17;99692.19;;;12.98;76.58
69214;BME280;56325;47.030;18.518;2023-03-25T02:55:59;99696.41;;;12.93;76.58
69214;BME280;56325;47.030;18.518;2023-03-25T02:58:34;99689.50;;;12.77;77.22
69214;BME280;56325;47.030;18.518;2023-03-25T03:01:11;99692.94;;;12.72;77.58
69214;BME280;56325;47.030;18.518;2023-03-25T03:03:47;99696.63;;;12.64;79.19
69214;BME280;56325;47.030;18.518;2023-03-25T03:06:22;99705.03;;;12.55;80.36
69214;BME280;56325;47.030;18.518;2023-03-25T03:09:10;99710.22;;;12.47;81.59
69214;BME280;56325;47.030;18.518;2023-03-25T03:11:57;99706.84;;;12.37;82.90
69214;BME280;56325;47.030;18.518;2023-03-25T03:14:48;99710.66;;;12.40;82.71
69214;BME280;56325;47.030;18.518;2023-03-25T03:17:33;99706.59;;;12.35;83.16
69214;BME280;56325;47.030;18.518;2023-03-25T03:20:16;99693.75;;;12.32;82.96
69214;BME280;56325;47.030;18.518;2023-03-25T03:22:57;99704.03;;;12.32;83.56
69214;BME280;56325;47.030;18.518;2023-03-25T03:25:43;99699.28;;;12.32;84.17
69214;BME280;56325;47.030;18.518;2023-03-25T03:28:26;99712.25;;;12.26;84.80
69214;BME280;56325;47.030;18.518;2023-03-25T03:31:06;99702.31;;;12.34;84.43
69214;BME280;56325;47.030;18.518;2023-03-25T03:33:47;99705.88;;;12.40;84.51
69214;BME280;56325;47.030;18.518;2023-03-25T03:36:28;99709.56;;;12.32;84.09
69214;BME280;56325;47.030;18.518;2023-03-25T03:39:09;99703.91;;;12.21;85.10
69214;BME280;56325;47.030;18.518;2023-03-25T03:41:49;99701.81;;;12.15;85.58
69214;BME280;56325;47.030;18.518;2023-03-25T03:44:29;99695.22;;;12.28;85.01
69214;BME280;56325;47.030;18.518;2023-03-25T03:47:09;99706.66;;;12.21;85.99
69214;BME280;56325;47.030;18.518;2023-03-25T03:49:49;99708.25;;;12.27;86.00
69214;BME280;56325;47.030;18.518;2023-03-25T03:52:30;99720.78;;;12.28;85.84
69214;BME280;56325;47.030;18.518;2023-03-25T03:55:09;99726.22;;;12.43;85.51
69214;BME280;56325;47.030;18.518;2023-03-25T03:57:49;99720.38;;;12.15;86.07
69214;BME280;56325;47.030;18.518;2023-03-25T04:00:30;99724.16;;;12.38;85.34
69214;BME280;56325;47.030;18.518;2023-03-25T04:03:10;99731.06;;;12.28;86.06
69214;BME280;56325;47.030;18.518;2023-03-25T04:05:52;99724.44;;;12.40;85.52
69214;BME280;56325;47.030;18.518;2023-03-25T04:08:30;99733.81;;;12.48;85.34
69214;BME280;56325;47.030;18.518;2023-03-25T04:11:10;99731.94;;;12.39;85.78
69214;BME280;56325;47.030;18.518;2023-03-25T04:13:46;99730.62;;;12.35;86.31
69214;BME280;56325;47.030;18.518;2023-03-25T04:16:24;99730.28;;;12.47;85.61
69214;BME280;56325;47.030;18.518;2023-03-25T04:19:00;99734.28;;;12.46;85.16
69214;BME280;56325;47.030;18.518;2023-03-25T04:21:35;99741.47;;;12.38;85.65
69214;BME280;56325;47.030;18.518;2023-03-25T04:24:10;99741.59;;;12.29;86.12
69214;BME280;56325;47.030;18.518;2023-03-25T04:26:48;99748.09;;;12.06;87.08
69214;BME280;56325;47.030;18.518;2023-03-25T04:29:25;99758.25;;;12.20;86.63
69214;BME280;56325;47.030;18.518;2023-03-25T04:32:00;99762.41;;;12.10;87.12
69214;BME280;56325;47.030;18.518;2023-03-25T04:34:35;99766.47;;;11.94;88.01
69214;BME280;56325;47.030;18.518;2023-03-25T04:37:09;99766.56;;;11.85;88.76
69214;BME280;56325;47.030;18.518;2023-03-25T04:39:45;99766.22;;;11.63;89.96
69214;BME280;56325;47.030;18.518;2023-03-25T04:42:20;99768.88;;;11.57;90.56
69214;BME280;56325;47.030;18.518;2023-03-25T04:44:57;99768.09;;;11.57;91.03
69214;BME280;56325;47.030;18.518;2023-03-25T04:47:33;99770.38;;;11.58;91.02
69214;BME280;56325;47.030;18.518;2023-03-25T04:50:17;99770.56;;;11.55;91.25
69214;BME280;56325;47.030;18.518;2023-03-25T04:52:53;99761.84;;;11.41;91.99
69214;BME280;56325;47.030;18.518;2023-03-25T04:55:29;99775.69;;;11.91;96.96
69214;BME280;56325;47.030;18.518;2023-03-25T04:58:08;99768.22;;;12.12;91.83
69214;BME280;56325;47.030;18.518;2023-03-25T05:00:44;99765.25;;;11.80;90.54
69214;BME280;56325;47.030;18.518;2023-03-25T05:03:20;99773.88;;;11.73;90.87
69214;BME280;56325;47.030;18.518;2023-03-25T05:05:57;99777.12;;;11.57;91.63
69214;BME280;56325;47.030;18.518;2023-03-25T05:08:32;99776.66;;;11.59;91.64
69214;BME280;56325;47.030;18.518;2023-03-25T05:11:07;99765.84;;;11.55;92.06
69214;BME280;56325;47.030;18.518;2023-03-25T05:13:41;99772.09;;;11.41;92.82
69214;BME280;56325;47.030;18.518;2023-03-25T05:16:16;99779.50;;;11.49;92.60
69214;BME280;56325;47.030;18.518;2023-03-25T05:18:51;99782.16;;;11.59;92.31
69214;BME280;56325;47.030;18.518;2023-03-25T05:21:26;99777.12;;;11.57;92.62
69214;BME280;56325;47.030;18.518;2023-03-25T05:24:00;99787.28;;;11.51;92.69
69214;BME280;56325;47.030;18.518;2023-03-25T05:26:35;99775.41;;;11.60;92.58
69214;BME280;56325;47.030;18.518;2023-03-25T05:29:11;99788.81;;;11.67;92.22
69214;BME280;56325;47.030;18.518;2023-03-25T05:31:46;99788.72;;;11.61;92.10
69214;BME280;56325;47.030;18.518;2023-03-25T05:34:22;99783.88;;;11.56;92.71
69214;BME280;56325;47.030;18.518;2023-03-25T05:36:57;99788.63;;;11.56;93.19
69214;BME280;56325;47.030;18.518;2023-03-25T05:39:32;99789.56;;;11.67;92.50
69214;BME280;56325;47.030;18.518;2023-03-25T05:42:07;99782.16;;;11.73;92.47
69214;BME280;56325;47.030;18.518;2023-03-25T05:44:42;99793.00;;;11.77;92.61
69214;BME280;56325;47.030;18.518;2023-03-25T05:47:24;99791.28;;;11.79;92.57
69214;BME280;56325;47.030;18.518;2023-03-25T05:50:02;99794.87;;;11.86;92.42
69214;BME280;56325;47.030;18.518;2023-03-25T05:52:37;99799.59;;;12.00;91.66
69214;BME280;56325;47.030;18.518;2023-03-25T05:55:14;99814.34;;;11.97;91.75
69214;BME280;56325;47.030;18.518;2023-03-25T05:57:56;99815.56;;;11.96;91.59
69214;BME280;56325;47.030;18.518;2023-03-25T06:00:31;99816.69;;;12.04;91.46
69214;BME280;56325;47.030;18.518;2023-03-25T06:03:08;99804.72;;;12.07;91.24
69214;BME280;56325;47.030;18.518;2023-03-25T06:05:44;99824.69;;;12.02;91.87
69214;BME280;56325;47.030;18.518;2023-03-25T06:08:19;99823.38;;;12.73;97.97
69214;BME280;56325;47.030;18.518;2023-03-25T06:10:58;99798.34;;;13.54;98.28
69214;BME280;56325;47.030;18.518;2023-03-25T06:13:32;99818.78;;;13.36;89.35
69214;BME280;56325;47.030;18.518;2023-03-25T06:16:09;99814.62;;;13.21;87.28
69214;BME280;56325;47.030;18.518;2023-03-25T06:18:45;99810.69;;;13.07;87.64
69214;BME280;56325;47.030;18.518;2023-03-25T06:21:27;99814.19;;;12.82;88.56
69214;BME280;56325;47.030;18.518;2023-03-25T06:24:06;99813.44;;;12.61;89.43
69214;BME280;56325;47.030;18.518;2023-03-25T06:26:40;99818.66;;;12.38;90.50
69214;BME280;56325;47.030;18.518;2023-03-25T06:29:15;99813.28;;;12.29;91.04
69214;BME280;56325;47.030;18.518;2023-03-25T06:31:49;99824.47;;;12.40;91.06
69214;BME280;56325;47.030;18.518;2023-03-25T06:34:24;99827.06;;;12.29;91.23
69214;BME280;56325;47.030;18.518;2023-03-25T06:37:00;99832.22;;;12.22;91.90
69214;BME280;56325;47.030;18.518;2023-03-25T06:39:34;99829.06;;;12.29;92.31
69214;BME280;56325;47.030;18.518;2023-03-25T06:42:10;99824.69;;;12.22;92.36
69214;BME280;56325;47.030;18.518;2023-03-25T06:44:46;99828.09;;;12.32;91.95
69214;BME280;56325;47.030;18.518;2023-03-25T06:47:22;99828.78;;;12.27;92.83
69214;BME280;56325;47.030;18.518;2023-03-25T06:49:56;99828.69;;;12.21;93.38
69214;BME280;56325;47.030;18.518;2023-03-25T06:52:32;99840.16;;;12.34;93.33
69214;BME280;56325;47.030;18.518;2023-03-25T06:55:07;99843.75;;;12.40;93.12
69214;BME280;56325;47.030;18.518;2023-03-25T06:57:42;99844.44;;;12.35;93.44
69214;BME280;56325;47.030;18.518;2023-03-25T07:02:53;99851.91;;;12.90;91.15
69214;BME280;56325;47.030;18.518;2023-03-25T07:05:28;99851.91;;;12.90;91.15
69214;BME280;56325;47.030;18.518;2023-03-25T07:08:03;99847.34;;;12.46;92.51
69214;BME280;56325;47.030;18.518;2023-03-25T07:10:38;99849.28;;;12.61;91.83
69214;BME280;56325;47.030;18.518;2023-03-25T07:13:12;99853.66;;;12.67;91.17
69214;BME280;56325;47.030;18.518;2023-03-25T07:15:47;99861.03;;;12.76;91.27
69214;BME280;56325;47.030;18.518;2023-03-25T07:18:23;99854.69;;;12.70;90.70
69214;BME280;56325;47.030;18.518;2023-03-25T07:20:58;99857.16;;;12.68;90.39
69214;BME280;56325;47.030;18.518;2023-03-25T07:23:33;99852.47;;;12.74;90.82
69214;BME280;56325;47.030;18.518;2023-03-25T07:26:07;99854.84;;;13.07;93.37
69214;BME280;56325;47.030;18.518;2023-03-25T07:28:42;99853.56;;;13.49;91.36
69214;BME280;56325;47.030;18.518;2023-03-25T07:31:16;99852.31;;;13.50;87.64
69214;BME280;56325;47.030;18.518;2023-03-25T07:33:52;99847.38;;;13.33;88.02
69214;BME280;56325;47.030;18.518;2023-03-25T07:36:27;99855.19;;;13.35;87.50
69214;BME280;56325;47.030;18.518;2023-03-25T07:39:02;99855.19;;;13.35;88.42
69214;BME280;56325;47.030;18.518;2023-03-25T07:41:37;99864.69;;;13.34;87.60
69214;BME280;56325;47.030;18.518;2023-03-25T07:44:13;99864.09;;;13.24;88.42
69214;BME280;56325;47.030;18.518;2023-03-25T07:46:50;99852.84;;;13.28;88.18
69214;BME280;56325;47.030;18.518;2023-03-25T07:49:26;99854.63;;;13.31;87.84
69214;BME280;56325;47.030;18.518;2023-03-25T07:52:00;99859.25;;;13.39;87.85
69214;BME280;56325;47.030;18.518;2023-03-25T07:54:35;99856.75;;;13.41;87.91
69214;BME280;56325;47.030;18.518;2023-03-25T07:57:10;99859.34;;;13.51;86.78
69214;BME280;56325;47.030;18.518;2023-03-25T07:59:45;99852.69;;;13.63;88.37
69214;BME280;56325;47.030;18.518;2023-03-25T08:02:19;99846.44;;;13.68;86.64
69214;BME280;56325;47.030;18.518;2023-03-25T08:05:01;99850.81;;;13.80;87.04
69214;BME280;56325;47.030;18.518;2023-03-25T08:08:10;99854.06;;;13.78;85.89
69214;BME280;56325;47.030;18.518;2023-03-25T08:11:12;99851.47;;;14.01;87.28
69214;BME280;56325;47.030;18.518;2023-03-25T08:13:47;99849.94;;;14.00;84.37
69214;BME280;56325;47.030;18.518;2023-03-25T08:16:22;99847.06;;;14.20;84.88
69214;BME280;56325;47.030;18.518;2023-03-25T08:18:56;99847.50;;;14.45;83.15
69214;BME280;56325;47.030;18.518;2023-03-25T08:21:32;99834.37;;;14.93;83.59
69214;BME280;56325;47.030;18.518;2023-03-25T08:24:07;99828.66;;;15.19;79.75
69214;BME280;56325;47.030;18.518;2023-03-25T08:26:43;99828.63;;;15.14;79.13
69214;BME280;56325;47.030;18.518;2023-03-25T08:29:17;99840.84;;;14.79;80.21
69214;BME280;56325;47.030;18.518;2023-03-25T08:31:52;99852.62;;;14.63;79.40
69214;BME280;56325;47.030;18.518;2023-03-25T08:34:27;99842.56;;;14.65;80.82
69214;BME280;56325;47.030;18.518;2023-03-25T08:37:08;99843.28;;;14.55;79.86
69214;BME280;56325;47.030;18.518;2023-03-25T08:39:42;99836.28;;;14.65;78.14
69214;BME280;56325;47.030;18.518;2023-03-25T08:42:18;99835.28;;;14.68;80.85
69214;BME280;56325;47.030;18.518;2023-03-25T08:44:52;99830.50;;;14.63;80.93
69214;BME280;56325;47.030;18.518;2023-03-25T08:47:27;99827.19;;;14.59;80.38
69214;BME280;56325;47.030;18.518;2023-03-25T08:50:02;99830.50;;;14.63;80.73
69214;BME280;56325;47.030;18.518;2023-03-25T08:52:38;99838.00;;;14.57;77.60
69214;BME280;56325;47.030;18.518;2023-03-25T08:55:13;99833.53;;;14.76;80.78
69214;BME280;56325;47.030;18.518;2023-03-25T08:57:48;99836.88;;;14.91;80.63
69214;BME280;56325;47.030;18.518;2023-03-25T09:00:22;99833.28;;;14.74;79.93
69214;BME280;56325;47.030;18.518;2023-03-25T09:02:59;99838.66;;;15.00;80.93
69214;BME280;56325;47.030;18.518;2023-03-25T09:05:35;99838.88;;;14.85;78.95
69214;BME280;56325;47.030;18.518;2023-03-25T09:08:13;99847.87;;;14.69;77.53
69214;BME280;56325;47.030;18.518;2023-03-25T09:10:47;99842.25;;;15.23;80.86
69214;BME280;56325;47.030;18.518;2023-03-25T09:13:23;99846.22;;;15.05;78.43
69214;BME280;56325;47.030;18.518;2023-03-25T09:15:57;99843.25;;;15.25;78.39
69214;BME280;56325;47.030;18.518;2023-03-25T09:18:32;99841.53;;;15.39;79.53
69214;BME280;56325;47.030;18.518;2023-03-25T09:21:08;99843.25;;;15.20;79.16
69214;BME280;56325;47.030;18.518;2023-03-25T09:23:44;99838.75;;;15.33;77.40
69214;BME280;56325;47.030;18.518;2023-03-25T09:26:19;99844.31;;;15.39;76.44
69214;BME280;56325;47.030;18.518;2023-03-25T09:28:53;99837.25;;;15.44;76.08
69214;BME280;56325;47.030;18.518;2023-03-25T09:31:28;99842.06;;;15.54;75.18
69214;BME280;56325;47.030;18.518;2023-03-25T09:34:02;99840.31;;;15.73;75.54
69214;BME280;56325;47.030;18.518;2023-03-25T09:36:37;99834.00;;;15.90;74.61
69214;BME280;56325;47.030;18.518;2023-03-25T09:39:13;99827.44;;;15.93;74.08
69214;BME280;56325;47.030;18.518;2023-03-25T09:42:05;99832.75;;;15.57;73.78
69214;BME280;56325;47.030;18.518;2023-03-25T09:44:51;99836.03;;;15.67;75.09
69214;BME280;56325;47.030;18.518;2023-03-25T09:47:29;99836.28;;;15.97;73.48
69214;BME280;56325;47.030;18.518;2023-03-25T09:50:12;99833.47;;;16.14;74.04
69214;BME280;56325;47.030;18.518;2023-03-25T09:52:53;99845.56;;;16.16;73.88
69214;BME280;56325;47.030;18.518;2023-03-25T09:55:33;99829.44;;;16.09;72.21
69214;BME280;56325;47.030;18.518;2023-03-25T09:58:24;99844.34;;;15.78;72.81
69214;BME280;56325;47.030;18.518;2023-03-25T10:01:04;99838.03;;;15.50;73.87
69214;BME280;56325;47.030;18.518;2023-03-25T10:03:54;99822.66;;;15.43;74.22
69214;BME280;56325;47.030;18.518;2023-03-25T10:06:32;99823.09;;;15.14;73.98
69214;BME280;56325;47.030;18.518;2023-03-25T10:09:26;99820.28;;;15.02;73.26
69214;BME280;56325;47.030;18.518;2023-03-25T10:12:15;99838.47;;;15.20;74.05
69214;BME280;56325;47.030;18.518;2023-03-25T10:15:01;99833.22;;;15.50;72.74
69214;BME280;56325;47.030;18.518;2023-03-25T10:17:44;99833.00;;;15.82;71.57
69214;BME280;56325;47.030;18.518;2023-03-25T10:20:37;99835.50;;;16.02;70.88
69214;BME280;56325;47.030;18.518;2023-03-25T10:23:20;99838.53;;;16.10;68.03
69214;BME280;56325;47.030;18.518;2023-03-25T10:26:00;99834.19;;;16.36;69.59
69214;BME280;56325;47.030;18.518;2023-03-25T10:28:48;99830.06;;;16.54;68.37
69214;BME280;56325;47.030;18.518;2023-03-25T10:31:25;99829.03;;;16.68;68.02
69214;BME280;56325;47.030;18.518;2023-03-25T10:34:05;99830.56;;;16.69;66.52
69214;BME280;56325;47.030;18.518;2023-03-25T10:36:44;99832.06;;;16.59;67.31
69214;BME280;56325;47.030;18.518;2023-03-25T10:39:21;99845.94;;;16.70;66.47
69214;BME280;56325;47.030;18.518;2023-03-25T10:41:58;99843.47;;;16.50;66.15
69214;BME280;56325;47.030;18.518;2023-03-25T10:44:35;99842.78;;;16.27;66.12
69214;BME280;56325;47.030;18.518;2023-03-25T10:47:16;99842.06;;;15.99;66.99
69214;BME280;56325;47.030;18.518;2023-03-25T10:49:53;99846.34;;;15.89;66.25
69214;BME280;56325;47.030;18.518;2023-03-25T10:52:29;99850.38;;;15.77;67.73
69214;BME280;56325;47.030;18.518;2023-03-25T10:55:04;99865.25;;;15.62;67.59
69214;BME280;56325;47.030;18.518;2023-03-25T10:57:48;99859.16;;;15.36;70.19
69214;BME280;56325;47.030;18.518;2023-03-25T11:00:25;99858.41;;;15.35;73.94
69214;BME280;56325;47.030;18.518;2023-03-25T11:03:02;99857.16;;;15.48;73.74
69214;BME280;56325;47.030;18.518;2023-03-25T11:05:38;99854.56;;;15.11;71.03
69214;BME280;56325;47.030;18.518;2023-03-25T11:08:14;99858.28;;;14.96;70.43
69214;BME280;56325;47.030;18.518;2023-03-25T11:10:57;99860.03;;;14.94;71.83
69214;BME280;56325;47.030;18.518;2023-03-25T11:13:34;99855.28;;;15.00;70.79
69214;BME280;56325;47.030;18.518;2023-03-25T11:16:11;99853.47;;;14.91;70.92
69214;BME280;56325;47.030;18.518;2023-03-25T11:18:45;99859.22;;;14.82;70.85
69214;BME280;56325;47.030;18.518;2023-03-25T11:21:22;99853.47;;;14.91;70.83
69214;BME280;56325;47.030;18.518;2023-03-25T11:23:57;99845.91;;;14.86;70.56
69214;BME280;56325;47.030;18.518;2023-03-25T11:26:36;99844.41;;;14.85;70.89
69214;BME280;56325;47.030;18.518;2023-03-25T11:29:14;99844.38;;;14.80;69.38
69214;BME280;56325;47.030;18.518;2023-03-25T11:32:06;99837.16;;;15.04;71.08
69214;BME280;56325;47.030;18.518;2023-03-25T11:34:46;99834.63;;;15.01;69.44
69214;BME280;56325;47.030;18.518;2023-03-25T11:37:22;99825.34;;;15.09;70.43
69214;BME280;56325;47.030;18.518;2023-03-25T11:40:03;99823.34;;;15.16;70.79
69214;BME280;56325;47.030;18.518;2023-03-25T11:42:40;99831.88;;;15.06;69.61
69214;BME280;56325;47.030;18.518;2023-03-25T11:45:20;99838.41;;;15.03;70.25
69214;BME280;56325;47.030;18.518;2023-03-25T11:47:59;99838.94;;;15.07;73.24
69214;BME280;56325;47.030;18.518;2023-03-25T11:50:35;99853.56;;;15.14;70.78
69214;BME280;56325;47.030;18.518;2023-03-25T11:53:14;99862.88;;;15.11;69.74
69214;BME280;56325;47.030;18.518;2023-03-25T11:55:53;99871.75;;;14.61;72.07
69214;BME280;56325;47.030;18.518;2023-03-25T11:58:30;99878.56;;;14.28;73.50
69214;BME280;56325;47.030;18.518;2023-03-25T12:01:19;99885.94;;;14.05;75.35
69214;BME280;56325;47.030;18.518;2023-03-25T12:04:10;99902.25;;;13.72;76.92
69214;BME280;56325;47.030;18.518;2023-03-25T12:06:54;99900.06;;;12.69;77.13
69214;BME280;56325;47.030;18.518;2023-03-25T12:09:30;99858.34;;;12.61;79.39
69214;BME280;56325;47.030;18.518;2023-03-25T12:12:21;99844.47;;;12.21;75.73
69214;BME280;56325;47.030;18.518;2023-03-25T12:15:15;99860.97;;;12.35;71.43
69214;BME280;56325;47.030;18.518;2023-03-25T12:18:05;99852.62;;;12.30;73.74
69214;BME280;56325;47.030;18.518;2023-03-25T12:20:53;99845.06;;;12.45;73.21
69214;BME280;56325;47.030;18.518;2023-03-25T12:23:37;99839.66;;;12.71;72.85
69214;BME280;56325;47.030;18.518;2023-03-25T12:26:17;99838.06;;;13.10;74.40
69214;BME280;56325;47.030;18.518;2023-03-25T12:29:24;99837.09;;;13.13;73.46
69214;BME280;56325;47.030;18.518;2023-03-25T12:32:13;99838.97;;;13.22;73.52
69214;BME280;56325;47.030;18.518;2023-03-25T12:34:58;99827.44;;;13.50;74.87
69214;BME280;56325;47.030;18.518;2023-03-25T12:37:45;99827.78;;;13.57;73.76
69214;BME280;56325;47.030;18.518;2023-03-25T12:40:36;99823.31;;;13.65;72.29
69214;BME280;56325;47.030;18.518;2023-03-25T12:43:20;99825.37;;;14.45;79.13
69214;BME280;56325;47.030;18.518;2023-03-25T12:46:12;99834.78;;;14.27;72.30
69214;BME280;56325;47.030;18.518;2023-03-25T12:49:04;99833.66;;;13.70;75.02
69214;BME280;56325;47.030;18.518;2023-03-25T12:51:49;99848.28;;;13.25;77.70
69214;BME280;56325;47.030;18.518;2023-03-25T12:54:42;99840.75;;;12.59;72.02
69214;BME280;56325;47.030;18.518;2023-03-25T12:57:31;99842.00;;;12.23;72.50
69214;BME280;56325;47.030;18.518;2023-03-25T13:00:36;99838.69;;;11.84;73.75
69214;BME280;56325;47.030;18.518;2023-03-25T13:03:28;99808.94;;;11.58;73.23
69214;BME280;56325;47.030;18.518;2023-03-25T13:06:15;99812.94;;;11.42;74.52
69214;BME280;56325;47.030;18.518;2023-03-25T13:08:55;99832.87;;;11.67;72.04
69214;BME280;56325;47.030;18.518;2023-03-25T13:11:38;99822.06;;;11.78;71.97
69214;BME280;56325;47.030;18.518;2023-03-25T13:14:18;99805.50;;;11.93;72.93
69214;BME280;56325;47.030;18.518;2023-03-25T13:16:57;99802.34;;;12.00;72.55
69214;BME280;56325;47.030;18.518;2023-03-25T13:19:34;99822.22;;;12.04;74.16
69214;BME280;56325;47.030;18.518;2023-03-25T13:22:18;99826.97;;;12.03;69.97
69214;BME280;56325;47.030;18.518;2023-03-25T13:24:57;99816.59;;;12.33;70.82
69214;BME280;56325;47.030;18.518;2023-03-25T13:27:40;99815.75;;;12.27;71.61
69214;BME280;56325;47.030;18.518;2023-03-25T13:30:18;99815.34;;;12.34;71.95
69214;BME280;56325;47.030;18.518;2023-03-25T13:32:56;99814.69;;;12.60;73.99
69214;BME280;56325;47.030;18.518;2023-03-25T13:35:38;99806.19;;;12.63;70.86
69214;BME280;56325;47.030;18.518;2023-03-25T13:38:18;99804.47;;;12.86;70.51
69214;BME280;56325;47.030;18.518;2023-03-25T13:41:06;99800.78;;;12.95;70.58
69214;BME280;56325;47.030;18.518;2023-03-25T13:43:51;99805.91;;;13.07;68.44
69214;BME280;56325;47.030;18.518;2023-03-25T13:46:33;99811.34;;;12.96;69.43
69214;BME280;56325;47.030;18.518;2023-03-25T13:49:14;99816.19;;;13.07;67.84
69214;BME280;56325;47.030;18.518;2023-03-25T13:51:50;99811.31;;;13.17;68.16
69214;BME280;56325;47.030;18.518;2023-03-25T13:54:29;99808.56;;;13.17;66.55
69214;BME280;56325;47.030;18.518;2023-03-25T13:57:23;99806.88;;;13.04;65.56
69214;BME280;56325;47.030;18.518;2023-03-25T14:00:26;99801.03;;;13.17;65.81